Corlu, Turkey

5:04 PM EET on February 12, 2016 (GMT +0200)
Corlu Air Base | | Change Station
CLOSE
Current Station
Airport
Location: Corlu,
Elevation: 568 ft
Nearby Weather Stations

Elev 568 ft 41.14 °N, 27.92 °E | Updated 14 minutes ago

Mostly Cloudy
Mostly Cloudy
55 °F
Feels Like 55 °F
N
7
Wind Variable Wind from SE

Today
High -- | Low -- °F
--% Chance of Precip.
Yesterday
High -- | Low -- °F
Precip. -- in
Pressure 29.92 in
Visibility 6.2 miles
Clouds Mostly Cloudy 3000 ft
Dew Point 52 °F
Humidity 88%
Rainfall 0.00 in
Snow Depth Not available.
7:07 AM 5:37 PM
Waxing Crescent, 21% visible
METAR LTBU 121450Z 14006KT 9999 BKN030 13/11 Q1013
Pressure 29.92 in
Visibility 6.2 miles
Clouds Mostly Cloudy 3000 ft
Dew Point 52 °F
Humidity 88%
Rainfall 0.00 in
Snow Depth Not available.
7:07 AM 5:37 PM
Waxing Crescent, 21% visible
METAR LTBU 121450Z 14006KT 9999 BKN030 13/11 Q1013

10-Day Weather Forecast

Almanac

Astronomy

Feb. 12, 2016 Rise Set
Actual Time
Civil Twilight
Nautical Twilight
Astronomical Twilight
Moon
Length of Visible Light
Length of Day
Tomorrow will be .
, % of the Moon is Illuminated

Today's Extremes

Country Highs Country Lows

Community

WunderPhotos

Upload Photos

1,892,323 photos uploaded!

WunderBlog® & News

Nearby

Air Quality

  Air Quality AQ Index Pollutant
Not available.

Snow Depth

Station Depth Elevation

Earthquake Activity

City Distance Mag. Time & Date
Minimum magnitude displayed is 2.5.

Coastal Water Temperatures

Place Temperature

Stations

Nearby Weather Stations

Station Location Temp. Windchill Dew Point Humidity Wind Precip. Elev Updated Type